sensor_id;sensor_type;location;lat;lon;timestamp;P1;durP1;ratioP1;P2;durP2;ratioP2
4049;SDS011;2039;50.894;6.888;2023-04-03T00:01:38;65.00;;;6.10;;
4049;SDS011;2039;50.894;6.888;2023-04-03T00:04:04;72.60;;;6.73;;
4049;SDS011;2039;50.894;6.888;2023-04-03T00:06:31;65.13;;;5.50;;
4049;SDS011;2039;50.894;6.888;2023-04-03T00:08:57;66.65;;;5.75;;
4049;SDS011;2039;50.894;6.888;2023-04-03T00:11:23;70.40;;;5.90;;
4049;SDS011;2039;50.894;6.888;2023-04-03T00:13:48;66.40;;;6.00;;
4049;SDS011;2039;50.894;6.888;2023-04-03T00:16:14;65.63;;;6.45;;
4049;SDS011;2039;50.894;6.888;2023-04-03T00:18:40;68.20;;;6.50;;
4049;SDS011;2039;50.894;6.888;2023-04-03T00:21:07;65.22;;;5.65;;
4049;SDS011;2039;50.894;6.888;2023-04-03T00:23:33;69.75;;;6.60;;
4049;SDS011;2039;50.894;6.888;2023-04-03T00:25:59;65.95;;;5.93;;
4049;SDS011;2039;50.894;6.888;2023-04-03T00:28:25;69.70;;;6.27;;
4049;SDS011;2039;50.894;6.888;2023-04-03T00:30:51;67.10;;;6.80;;
4049;SDS011;2039;50.894;6.888;2023-04-03T00:33:17;68.47;;;8.50;;
4049;SDS011;2039;50.894;6.888;2023-04-03T00:35:46;65.32;;;7.00;;
4049;SDS011;2039;50.894;6.888;2023-04-03T00:38:13;65.47;;;8.52;;
4049;SDS011;2039;50.894;6.888;2023-04-03T00:40:42;72.13;;;10.52;;
4049;SDS011;2039;50.894;6.888;2023-04-03T00:43:11;70.03;;;10.35;;
4049;SDS011;2039;50.894;6.888;2023-04-03T00:45:40;67.50;;;10.45;;
4049;SDS011;2039;50.894;6.888;2023-04-03T00:48:10;69.13;;;10.02;;
4049;SDS011;2039;50.894;6.888;2023-04-03T00:50:41;67.28;;;10.68;;
4049;SDS011;2039;50.894;6.888;2023-04-03T00:53:08;69.43;;;11.55;;
4049;SDS011;2039;50.894;6.888;2023-04-03T00:55:38;68.22;;;12.80;;
4049;SDS011;2039;50.894;6.888;2023-04-03T00:58:04;67.53;;;9.00;;
4049;SDS011;2039;50.894;6.888;2023-04-03T01:00:32;68.68;;;10.82;;
4049;SDS011;2039;50.894;6.888;2023-04-03T01:02:58;67.55;;;9.07;;
4049;SDS011;2039;50.894;6.888;2023-04-03T01:05:25;66.63;;;8.45;;
4049;SDS011;2039;50.894;6.888;2023-04-03T01:07:51;66.90;;;7.20;;
4049;SDS011;2039;50.894;6.888;2023-04-03T01:10:18;67.40;;;9.55;;
4049;SDS011;2039;50.894;6.888;2023-04-03T01:12:46;69.05;;;9.45;;
4049;SDS011;2039;50.894;6.888;2023-04-03T01:17:49;66.68;;;7.50;;
4049;SDS011;2039;50.894;6.888;2023-04-03T01:25:23;68.20;;;5.45;;
4049;SDS011;2039;50.894;6.888;2023-04-03T01:27:49;65.27;;;5.67;;
4049;SDS011;2039;50.894;6.888;2023-04-03T01:30:17;67.28;;;6.53;;
4049;SDS011;2039;50.894;6.888;2023-04-03T01:32:45;68.63;;;7.32;;
4049;SDS011;2039;50.894;6.888;2023-04-03T01:35:11;65.68;;;6.25;;
4049;SDS011;2039;50.894;6.888;2023-04-03T01:37:36;67.60;;;6.97;;
4049;SDS011;2039;50.894;6.888;2023-04-03T01:40:05;67.57;;;6.60;;
4049;SDS011;2039;50.894;6.888;2023-04-03T01:42:32;67.60;;;7.15;;
4049;SDS011;2039;50.894;6.888;2023-04-03T01:44:57;65.40;;;6.60;;
4049;SDS011;2039;50.894;6.888;2023-04-03T01:47:23;67.40;;;6.13;;
4049;SDS011;2039;50.894;6.888;2023-04-03T01:49:48;66.07;;;6.70;;
4049;SDS011;2039;50.894;6.888;2023-04-03T01:52:14;67.70;;;7.80;;
4049;SDS011;2039;50.894;6.888;2023-04-03T01:54:40;69.80;;;10.23;;
4049;SDS011;2039;50.894;6.888;2023-04-03T01:57:06;67.97;;;10.43;;
4049;SDS011;2039;50.894;6.888;2023-04-03T01:59:31;66.90;;;10.53;;
4049;SDS011;2039;50.894;6.888;2023-04-03T02:01:57;67.77;;;10.60;;
4049;SDS011;2039;50.894;6.888;2023-04-03T02:04:23;68.80;;;13.33;;
4049;SDS011;2039;50.894;6.888;2023-04-03T02:06:48;70.10;;;13.70;;
4049;SDS011;2039;50.894;6.888;2023-04-03T02:09:14;67.07;;;12.00;;
4049;SDS011;2039;50.894;6.888;2023-04-03T02:11:40;69.73;;;13.20;;
4049;SDS011;2039;50.894;6.888;2023-04-03T02:14:05;69.87;;;14.83;;
4049;SDS011;2039;50.894;6.888;2023-04-03T02:16:31;69.33;;;14.13;;
4049;SDS011;2039;50.894;6.888;2023-04-03T02:18:57;71.50;;;15.40;;
4049;SDS011;2039;50.894;6.888;2023-04-03T02:21:23;73.45;;;15.13;;
4049;SDS011;2039;50.894;6.888;2023-04-03T02:23:49;71.93;;;18.30;;
4049;SDS011;2039;50.894;6.888;2023-04-03T02:26:15;70.77;;;16.97;;
4049;SDS011;2039;50.894;6.888;2023-04-03T02:28:42;74.25;;;15.35;;
4049;SDS011;2039;50.894;6.888;2023-04-03T02:31:08;72.55;;;17.00;;
4049;SDS011;2039;50.894;6.888;2023-04-03T02:33:35;72.82;;;13.38;;
4049;SDS011;2039;50.894;6.888;2023-04-03T02:36:02;69.90;;;15.18;;
4049;SDS011;2039;50.894;6.888;2023-04-03T02:38:29;73.72;;;16.92;;
4049;SDS011;2039;50.894;6.888;2023-04-03T02:41:05;73.47;;;17.20;;
4049;SDS011;2039;50.894;6.888;2023-04-03T02:43:32;70.88;;;14.20;;
4049;SDS011;2039;50.894;6.888;2023-04-03T02:45:58;74.15;;;16.25;;
4049;SDS011;2039;50.894;6.888;2023-04-03T02:48:24;74.80;;;15.47;;
4049;SDS011;2039;50.894;6.888;2023-04-03T02:50:50;73.72;;;18.05;;
4049;SDS011;2039;50.894;6.888;2023-04-03T02:53:16;70.07;;;14.13;;
4049;SDS011;2039;50.894;6.888;2023-04-03T02:55:42;73.40;;;17.00;;
4049;SDS011;2039;50.894;6.888;2023-04-03T02:58:07;73.10;;;15.97;;
4049;SDS011;2039;50.894;6.888;2023-04-03T03:00:33;70.50;;;15.93;;
4049;SDS011;2039;50.894;6.888;2023-04-03T03:02:59;73.80;;;15.63;;
4049;SDS011;2039;50.894;6.888;2023-04-03T03:05:25;71.33;;;15.37;;
4049;SDS011;2039;50.894;6.888;2023-04-03T03:07:52;73.05;;;16.65;;
4049;SDS011;2039;50.894;6.888;2023-04-03T03:10:18;76.65;;;16.55;;
4049;SDS011;2039;50.894;6.888;2023-04-03T03:12:44;71.77;;;16.47;;
4049;SDS011;2039;50.894;6.888;2023-04-03T03:15:09;73.20;;;15.83;;
4049;SDS011;2039;50.894;6.888;2023-04-03T03:17:35;71.70;;;16.02;;
4049;SDS011;2039;50.894;6.888;2023-04-03T03:20:02;70.37;;;13.50;;
4049;SDS011;2039;50.894;6.888;2023-04-03T03:22:28;71.45;;;15.65;;
4049;SDS011;2039;50.894;6.888;2023-04-03T03:24:55;73.05;;;16.23;;
4049;SDS011;2039;50.894;6.888;2023-04-03T03:27:20;72.47;;;13.20;;
4049;SDS011;2039;50.894;6.888;2023-04-03T03:29:46;72.00;;;15.30;;
4049;SDS011;2039;50.894;6.888;2023-04-03T03:32:12;71.15;;;13.48;;
4049;SDS011;2039;50.894;6.888;2023-04-03T03:34:38;71.80;;;14.23;;
4049;SDS011;2039;50.894;6.888;2023-04-03T03:37:03;74.70;;;15.63;;
4049;SDS011;2039;50.894;6.888;2023-04-03T03:39:29;72.00;;;15.43;;
4049;SDS011;2039;50.894;6.888;2023-04-03T03:41:55;71.63;;;15.63;;
4049;SDS011;2039;50.894;6.888;2023-04-03T03:44:21;69.87;;;13.33;;
4049;SDS011;2039;50.894;6.888;2023-04-03T03:46:46;72.13;;;15.30;;
4049;SDS011;2039;50.894;6.888;2023-04-03T03:49:12;75.57;;;14.20;;
4049;SDS011;2039;50.894;6.888;2023-04-03T03:51:38;73.03;;;14.97;;
4049;SDS011;2039;50.894;6.888;2023-04-03T03:54:04;75.28;;;16.67;;
4049;SDS011;2039;50.894;6.888;2023-04-03T03:56:30;72.70;;;14.57;;
4049;SDS011;2039;50.894;6.888;2023-04-03T03:58:56;72.60;;;15.02;;
4049;SDS011;2039;50.894;6.888;2023-04-03T04:01:22;72.23;;;15.77;;
4049;SDS011;2039;50.894;6.888;2023-04-03T04:03:48;70.85;;;13.70;;
4049;SDS011;2039;50.894;6.888;2023-04-03T04:06:14;73.70;;;14.77;;
4049;SDS011;2039;50.894;6.888;2023-04-03T04:08:40;72.90;;;15.60;;
4049;SDS011;2039;50.894;6.888;2023-04-03T04:11:08;72.40;;;14.87;;
4049;SDS011;2039;50.894;6.888;2023-04-03T04:13:34;71.57;;;13.40;;
4049;SDS011;2039;50.894;6.888;2023-04-03T04:16:00;78.20;;;14.40;;
4049;SDS011;2039;50.894;6.888;2023-04-03T04:18:25;72.87;;;15.13;;
4049;SDS011;2039;50.894;6.888;2023-04-03T04:20:51;75.73;;;15.80;;
4049;SDS011;2039;50.894;6.888;2023-04-03T04:23:17;70.27;;;14.90;;
4049;SDS011;2039;50.894;6.888;2023-04-03T04:25:44;71.88;;;15.75;;
4049;SDS011;2039;50.894;6.888;2023-04-03T04:28:11;74.82;;;17.50;;
4049;SDS011;2039;50.894;6.888;2023-04-03T04:30:37;71.75;;;13.40;;
4049;SDS011;2039;50.894;6.888;2023-04-03T04:33:03;72.07;;;13.40;;
4049;SDS011;2039;50.894;6.888;2023-04-03T04:35:28;75.47;;;14.97;;
4049;SDS011;2039;50.894;6.888;2023-04-03T04:37:54;73.20;;;14.57;;
4049;SDS011;2039;50.894;6.888;2023-04-03T04:40:20;73.20;;;15.50;;
4049;SDS011;2039;50.894;6.888;2023-04-03T04:42:46;76.60;;;13.90;;
4049;SDS011;2039;50.894;6.888;2023-04-03T04:45:12;71.05;;;13.68;;
4049;SDS011;2039;50.894;6.888;2023-04-03T04:47:37;72.00;;;14.37;;
4049;SDS011;2039;50.894;6.888;2023-04-03T04:50:03;73.17;;;13.87;;
4049;SDS011;2039;50.894;6.888;2023-04-03T04:52:29;72.82;;;13.25;;
4049;SDS011;2039;50.894;6.888;2023-04-03T04:54:55;70.97;;;14.10;;
4049;SDS011;2039;50.894;6.888;2023-04-03T04:57:21;73.50;;;14.10;;
4049;SDS011;2039;50.894;6.888;2023-04-03T04:59:46;72.47;;;13.23;;
4049;SDS011;2039;50.894;6.888;2023-04-03T05:02:12;72.57;;;13.43;;
4049;SDS011;2039;50.894;6.888;2023-04-03T05:04:38;71.43;;;12.67;;
4049;SDS011;2039;50.894;6.888;2023-04-03T05:07:03;74.57;;;14.97;;
4049;SDS011;2039;50.894;6.888;2023-04-03T05:09:29;72.50;;;13.30;;
4049;SDS011;2039;50.894;6.888;2023-04-03T05:11:55;71.90;;;13.00;;
4049;SDS011;2039;50.894;6.888;2023-04-03T05:14:21;72.13;;;12.40;;
4049;SDS011;2039;50.894;6.888;2023-04-03T05:16:47;72.77;;;12.63;;
4049;SDS011;2039;50.894;6.888;2023-04-03T05:19:13;70.50;;;12.73;;
4049;SDS011;2039;50.894;6.888;2023-04-03T05:21:38;70.35;;;12.55;;
4049;SDS011;2039;50.894;6.888;2023-04-03T05:24:04;72.83;;;13.47;;
4049;SDS011;2039;50.894;6.888;2023-04-03T05:26:34;71.90;;;13.73;;
4049;SDS011;2039;50.894;6.888;2023-04-03T05:29:00;71.65;;;13.35;;
4049;SDS011;2039;50.894;6.888;2023-04-03T05:31:26;73.47;;;12.65;;
4049;SDS011;2039;50.894;6.888;2023-04-03T05:33:54;69.63;;;12.07;;
4049;SDS011;2039;50.894;6.888;2023-04-03T05:36:20;70.47;;;13.30;;
4049;SDS011;2039;50.894;6.888;2023-04-03T05:38:46;72.63;;;12.32;;
4049;SDS011;2039;50.894;6.888;2023-04-03T05:41:12;70.47;;;12.25;;
4049;SDS011;2039;50.894;6.888;2023-04-03T05:43:38;74.95;;;14.05;;
4049;SDS011;2039;50.894;6.888;2023-04-03T05:46:14;75.63;;;12.40;;
4049;SDS011;2039;50.894;6.888;2023-04-03T05:48:42;74.80;;;13.18;;
4049;SDS011;2039;50.894;6.888;2023-04-03T05:51:13;75.22;;;12.95;;
4049;SDS011;2039;50.894;6.888;2023-04-03T05:53:44;72.82;;;11.90;;
4049;SDS011;2039;50.894;6.888;2023-04-03T05:56:10;73.25;;;13.38;;
4049;SDS011;2039;50.894;6.888;2023-04-03T05:58:36;71.82;;;12.43;;
4049;SDS011;2039;50.894;6.888;2023-04-03T06:01:02;71.53;;;12.00;;
4049;SDS011;2039;50.894;6.888;2023-04-03T06:03:28;73.43;;;13.13;;
4049;SDS011;2039;50.894;6.888;2023-04-03T06:05:53;71.37;;;13.30;;
4049;SDS011;2039;50.894;6.888;2023-04-03T06:08:19;73.40;;;13.37;;
4049;SDS011;2039;50.894;6.888;2023-04-03T06:10:45;70.47;;;11.67;;
4049;SDS011;2039;50.894;6.888;2023-04-03T06:13:11;72.05;;;12.93;;
4049;SDS011;2039;50.894;6.888;2023-04-03T06:15:37;68.70;;;10.93;;
4049;SDS011;2039;50.894;6.888;2023-04-03T06:18:04;71.30;;;12.70;;
4049;SDS011;2039;50.894;6.888;2023-04-03T06:20:30;71.53;;;12.40;;
4049;SDS011;2039;50.894;6.888;2023-04-03T06:22:56;69.07;;;11.50;;
4049;SDS011;2039;50.894;6.888;2023-04-03T06:25:22;72.83;;;11.20;;
4049;SDS011;2039;50.894;6.888;2023-04-03T06:27:47;69.20;;;10.50;;
4049;SDS011;2039;50.894;6.888;2023-04-03T06:30:13;71.30;;;9.80;;
4049;SDS011;2039;50.894;6.888;2023-04-03T06:32:39;69.63;;;9.90;;
4049;SDS011;2039;50.894;6.888;2023-04-03T06:35:05;72.13;;;8.70;;
4049;SDS011;2039;50.894;6.888;2023-04-03T06:37:31;70.10;;;10.20;;
4049;SDS011;2039;50.894;6.888;2023-04-03T06:39:57;74.07;;;11.73;;
4049;SDS011;2039;50.894;6.888;2023-04-03T06:42:25;72.63;;;11.43;;
4049;SDS011;2039;50.894;6.888;2023-04-03T06:44:51;73.60;;;9.27;;
4049;SDS011;2039;50.894;6.888;2023-04-03T06:47:24;66.10;;;9.00;;
4049;SDS011;2039;50.894;6.888;2023-04-03T06:49:53;69.28;;;7.30;;
4049;SDS011;2039;50.894;6.888;2023-04-03T06:52:18;71.03;;;7.97;;
4049;SDS011;2039;50.894;6.888;2023-04-03T06:54:44;67.30;;;8.33;;
4049;SDS011;2039;50.894;6.888;2023-04-03T06:57:10;67.93;;;8.00;;
4049;SDS011;2039;50.894;6.888;2023-04-03T06:59:36;68.30;;;8.43;;
4049;SDS011;2039;50.894;6.888;2023-04-03T07:02:04;68.97;;;7.77;;
4049;SDS011;2039;50.894;6.888;2023-04-03T07:04:31;65.97;;;6.75;;
4049;SDS011;2039;50.894;6.888;2023-04-03T07:06:56;66.43;;;5.90;;
4049;SDS011;2039;50.894;6.888;2023-04-03T07:09:28;71.83;;;6.60;;
4049;SDS011;2039;50.894;6.888;2023-04-03T07:11:54;66.80;;;6.75;;
4049;SDS011;2039;50.894;6.888;2023-04-03T07:14:22;69.20;;;5.67;;
4049;SDS011;2039;50.894;6.888;2023-04-03T07:16:48;65.40;;;5.32;;
4049;SDS011;2039;50.894;6.888;2023-04-03T07:19:13;68.10;;;5.13;;
4049;SDS011;2039;50.894;6.888;2023-04-03T07:21:39;68.87;;;6.00;;
4049;SDS011;2039;50.894;6.888;2023-04-03T07:24:08;66.95;;;6.28;;
4049;SDS011;2039;50.894;6.888;2023-04-03T07:26:33;67.00;;;5.87;;
4049;SDS011;2039;50.894;6.888;2023-04-03T07:29:00;67.47;;;6.60;;
4049;SDS011;2039;50.894;6.888;2023-04-03T07:31:26;68.10;;;5.60;;
4049;SDS011;2039;50.894;6.888;2023-04-03T07:33:52;68.10;;;4.72;;
4049;SDS011;2039;50.894;6.888;2023-04-03T07:36:18;65.20;;;4.57;;
4049;SDS011;2039;50.894;6.888;2023-04-03T07:38:46;69.22;;;5.25;;
4049;SDS011;2039;50.894;6.888;2023-04-03T07:41:15;66.30;;;5.17;;
4049;SDS011;2039;50.894;6.888;2023-04-03T07:43:43;65.38;;;4.55;;
4049;SDS011;2039;50.894;6.888;2023-04-03T07:46:10;67.78;;;6.05;;
4049;SDS011;2039;50.894;6.888;2023-04-03T07:48:36;65.57;;;6.00;;
4049;SDS011;2039;50.894;6.888;2023-04-03T07:51:02;66.47;;;5.43;;
4049;SDS011;2039;50.894;6.888;2023-04-03T07:53:29;66.90;;;6.03;;
4049;SDS011;2039;50.894;6.888;2023-04-03T07:55:56;65.43;;;6.63;;
4049;SDS011;2039;50.894;6.888;2023-04-03T07:58:22;67.93;;;4.90;;
4049;SDS011;2039;50.894;6.888;2023-04-03T08:00:48;66.80;;;5.80;;
4049;SDS011;2039;50.894;6.888;2023-04-03T08:03:14;66.60;;;5.47;;
4049;SDS011;2039;50.894;6.888;2023-04-03T08:05:44;66.28;;;4.75;;
4049;SDS011;2039;50.894;6.888;2023-04-03T08:08:12;67.05;;;4.78;;
4049;SDS011;2039;50.894;6.888;2023-04-03T08:10:40;66.95;;;4.72;;
4049;SDS011;2039;50.894;6.888;2023-04-03T08:13:06;68.53;;;5.20;;
4049;SDS011;2039;50.894;6.888;2023-04-03T08:15:33;66.45;;;5.28;;
4049;SDS011;2039;50.894;6.888;2023-04-03T08:17:59;67.57;;;4.90;;
4049;SDS011;2039;50.894;6.888;2023-04-03T08:20:26;70.97;;;5.00;;
4049;SDS011;2039;50.894;6.888;2023-04-03T08:22:52;69.10;;;6.22;;
4049;SDS011;2039;50.894;6.888;2023-04-03T08:25:18;67.45;;;5.47;;
4049;SDS011;2039;50.894;6.888;2023-04-03T08:27:45;73.77;;;5.10;;
4049;SDS011;2039;50.894;6.888;2023-04-03T08:30:11;65.00;;;4.22;;
4049;SDS011;2039;50.894;6.888;2023-04-03T08:32:40;67.13;;;4.75;;
4049;SDS011;2039;50.894;6.888;2023-04-03T08:35:09;68.85;;;4.95;;
4049;SDS011;2039;50.894;6.888;2023-04-03T08:37:35;67.13;;;3.97;;
4049;SDS011;2039;50.894;6.888;2023-04-03T08:40:02;67.00;;;4.38;;
4049;SDS011;2039;50.894;6.888;2023-04-03T08:47:59;66.50;;;5.00;;
4049;SDS011;2039;50.894;6.888;2023-04-03T08:51:09;67.85;;;4.68;;
4049;SDS011;2039;50.894;6.888;2023-04-03T08:53:30;65.97;;;5.00;;
4049;SDS011;2039;50.894;6.888;2023-04-03T08:56:02;67.07;;;5.30;;
4049;SDS011;2039;50.894;6.888;2023-04-03T08:58:39;66.82;;;4.80;;
4049;SDS011;2039;50.894;6.888;2023-04-03T09:01:21;69.30;;;5.43;;
4049;SDS011;2039;50.894;6.888;2023-04-03T09:03:52;70.47;;;5.68;;
4049;SDS011;2039;50.894;6.888;2023-04-03T09:06:22;65.00;;;5.50;;
4049;SDS011;2039;50.894;6.888;2023-04-03T09:09:02;65.18;;;4.25;;
4049;SDS011;2039;50.894;6.888;2023-04-03T09:12:23;68.18;;;4.75;;
4049;SDS011;2039;50.894;6.888;2023-04-03T09:23:20;68.60;;;5.10;;
4049;SDS011;2039;50.894;6.888;2023-04-03T09:26:04;65.72;;;4.65;;
4049;SDS011;2039;50.894;6.888;2023-04-03T09:28:35;67.50;;;4.72;;
4049;SDS011;2039;50.894;6.888;2023-04-03T09:31:24;64.78;;;4.20;;
4049;SDS011;2039;50.894;6.888;2023-04-03T09:33:53;67.75;;;4.60;;
4049;SDS011;2039;50.894;6.888;2023-04-03T09:37:08;65.97;;;3.92;;
4049;SDS011;2039;50.894;6.888;2023-04-03T09:39:22;64.65;;;3.85;;
4049;SDS011;2039;50.894;6.888;2023-04-03T09:42:13;65.38;;;4.07;;
4049;SDS011;2039;50.894;6.888;2023-04-03T09:44:52;65.90;;;3.60;;
4049;SDS011;2039;50.894;6.888;2023-04-03T09:47:25;63.67;;;3.53;;
4049;SDS011;2039;50.894;6.888;2023-04-03T09:52:39;64.32;;;4.00;;
4049;SDS011;2039;50.894;6.888;2023-04-03T09:55:28;65.72;;;3.20;;
4049;SDS011;2039;50.894;6.888;2023-04-03T09:58:23;67.57;;;3.35;;
4049;SDS011;2039;50.894;6.888;2023-04-03T10:01:23;67.55;;;3.50;;
4049;SDS011;2039;50.894;6.888;2023-04-03T10:06:44;65.35;;;3.58;;
4049;SDS011;2039;50.894;6.888;2023-04-03T10:09:17;67.22;;;3.88;;
4049;SDS011;2039;50.894;6.888;2023-04-03T10:12:02;70.35;;;3.72;;
4049;SDS011;2039;50.894;6.888;2023-04-03T10:26:31;67.57;;;5.43;;
4049;SDS011;2039;50.894;6.888;2023-04-03T10:34:21;67.28;;;3.83;;
4049;SDS011;2039;50.894;6.888;2023-04-03T10:37:01;66.05;;;3.50;;
4049;SDS011;2039;50.894;6.888;2023-04-03T10:39:57;64.95;;;4.03;;
4049;SDS011;2039;50.894;6.888;2023-04-03T10:42:35;65.30;;;3.65;;
4049;SDS011;2039;50.894;6.888;2023-04-03T10:48:26;67.80;;;3.72;;
4049;SDS011;2039;50.894;6.888;2023-04-03T10:54:00;67.10;;;4.45;;
4049;SDS011;2039;50.894;6.888;2023-04-03T10:58:56;64.90;;;3.77;;
4049;SDS011;2039;50.894;6.888;2023-04-03T11:01:29;65.82;;;3.97;;
4049;SDS011;2039;50.894;6.888;2023-04-03T11:04:02;64.28;;;3.60;;
4049;SDS011;2039;50.894;6.888;2023-04-03T11:06:35;64.60;;;4.07;;
4049;SDS011;2039;50.894;6.888;2023-04-03T11:09:24;65.93;;;3.45;;
4049;SDS011;2039;50.894;6.888;2023-04-03T11:12:02;63.72;;;2.90;;
4049;SDS011;2039;50.894;6.888;2023-04-03T11:14:36;64.70;;;3.30;;
4049;SDS011;2039;50.894;6.888;2023-04-03T11:19:59;64.68;;;3.30;;
4049;SDS011;2039;50.894;6.888;2023-04-03T11:25:29;65.22;;;3.60;;
4049;SDS011;2039;50.894;6.888;2023-04-03T11:28:33;65.68;;;3.40;;
4049;SDS011;2039;50.894;6.888;2023-04-03T11:34:07;66.10;;;3.53;;
4049;SDS011;2039;50.894;6.888;2023-04-03T11:37:03;65.18;;;4.10;;
4049;SDS011;2039;50.894;6.888;2023-04-03T11:40:02;64.72;;;4.15;;
4049;SDS011;2039;50.894;6.888;2023-04-03T11:42:51;65.20;;;3.25;;
4049;SDS011;2039;50.894;6.888;2023-04-03T11:48:04;64.57;;;3.55;;
4049;SDS011;2039;50.894;6.888;2023-04-03T11:50:50;66.75;;;3.75;;
4049;SDS011;2039;50.894;6.888;2023-04-03T11:55:52;64.70;;;3.80;;
4049;SDS011;2039;50.894;6.888;2023-04-03T11:58:27;65.28;;;3.92;;
4049;SDS011;2039;50.894;6.888;2023-04-03T12:01:09;65.28;;;3.97;;
4049;SDS011;2039;50.894;6.888;2023-04-03T12:16:25;64.35;;;3.70;;
4049;SDS011;2039;50.894;6.888;2023-04-03T12:19:04;67.35;;;3.10;;
4049;SDS011;2039;50.894;6.888;2023-04-03T12:24:28;64.97;;;3.58;;
4049;SDS011;2039;50.894;6.888;2023-04-03T12:48:46;65.30;;;3.23;;
4049;SDS011;2039;50.894;6.888;2023-04-03T12:51:41;65.80;;;2.78;;
4049;SDS011;2039;50.894;6.888;2023-04-03T12:59:58;65.05;;;2.92;;
4049;SDS011;2039;50.894;6.888;2023-04-03T13:02:34;66.07;;;3.10;;
4049;SDS011;2039;50.894;6.888;2023-04-03T13:05:07;65.25;;;3.20;;
4049;SDS011;2039;50.894;6.888;2023-04-03T13:07:35;66.45;;;3.15;;
4049;SDS011;2039;50.894;6.888;2023-04-03T13:12:33;65.85;;;3.38;;
4049;SDS011;2039;50.894;6.888;2023-04-03T13:15:01;66.97;;;3.40;;
4049;SDS011;2039;50.894;6.888;2023-04-03T13:17:38;65.28;;;3.10;;
4049;SDS011;2039;50.894;6.888;2023-04-03T13:20:09;66.20;;;3.20;;
4049;SDS011;2039;50.894;6.888;2023-04-03T13:22:51;64.80;;;3.10;;
4049;SDS011;2039;50.894;6.888;2023-04-03T13:25:21;64.95;;;2.65;;
4049;SDS011;2039;50.894;6.888;2023-04-03T13:27:49;66.93;;;3.22;;
4049;SDS011;2039;50.894;6.888;2023-04-03T13:30:34;67.55;;;3.17;;
4049;SDS011;2039;50.894;6.888;2023-04-03T13:33:06;69.05;;;3.28;;
4049;SDS011;2039;50.894;6.888;2023-04-03T13:35:54;65.57;;;3.38;;
4049;SDS011;2039;50.894;6.888;2023-04-03T13:38:27;66.25;;;3.28;;
4049;SDS011;2039;50.894;6.888;2023-04-03T13:40:59;65.45;;;2.72;;
4049;SDS011;2039;50.894;6.888;2023-04-03T13:43:38;64.75;;;3.50;;
4049;SDS011;2039;50.894;6.888;2023-04-03T13:46:05;65.85;;;2.90;;
4049;SDS011;2039;50.894;6.888;2023-04-03T13:48:56;64.63;;;2.80;;
4049;SDS011;2039;50.894;6.888;2023-04-03T13:51:41;64.97;;;3.47;;
4049;SDS011;2039;50.894;6.888;2023-04-03T13:54:17;68.00;;;3.45;;
4049;SDS011;2039;50.894;6.888;2023-04-03T13:56:59;65.30;;;3.15;;
4049;SDS011;2039;50.894;6.888;2023-04-03T13:59:33;66.53;;;2.80;;
4049;SDS011;2039;50.894;6.888;2023-04-03T14:06:56;65.10;;;2.97;;
4049;SDS011;2039;50.894;6.888;2023-04-03T14:09:23;65.47;;;2.92;;
4049;SDS011;2039;50.894;6.888;2023-04-03T14:11:52;66.80;;;3.13;;
4049;SDS011;2039;50.894;6.888;2023-04-03T14:14:24;65.95;;;3.20;;
4049;SDS011;2039;50.894;6.888;2023-04-03T14:16:56;65.65;;;3.20;;
4049;SDS011;2039;50.894;6.888;2023-04-03T14:19:32;65.30;;;3.08;;
4049;SDS011;2039;50.894;6.888;2023-04-03T14:21:59;67.35;;;4.10;;
4049;SDS011;2039;50.894;6.888;2023-04-03T14:24:26;64.03;;;3.40;;
4049;SDS011;2039;50.894;6.888;2023-04-03T14:26:55;64.57;;;2.90;;
4049;SDS011;2039;50.894;6.888;2023-04-03T14:29:22;65.97;;;3.40;;
4049;SDS011;2039;50.894;6.888;2023-04-03T14:31:49;67.60;;;3.80;;
4049;SDS011;2039;50.894;6.888;2023-04-03T14:34:15;65.47;;;3.38;;
4049;SDS011;2039;50.894;6.888;2023-04-03T14:36:42;65.20;;;3.15;;
4049;SDS011;2039;50.894;6.888;2023-04-03T14:39:16;64.72;;;3.03;;
4049;SDS011;2039;50.894;6.888;2023-04-03T14:41:43;65.47;;;3.10;;
4049;SDS011;2039;50.894;6.888;2023-04-03T14:44:10;66.93;;;3.45;;
4049;SDS011;2039;50.894;6.888;2023-04-03T14:46:36;67.17;;;3.43;;
4049;SDS011;2039;50.894;6.888;2023-04-03T14:49:14;65.28;;;3.00;;
4049;SDS011;2039;50.894;6.888;2023-04-03T14:51:42;64.90;;;3.38;;
4049;SDS011;2039;50.894;6.888;2023-04-03T14:54:16;65.00;;;3.60;;
4049;SDS011;2039;50.894;6.888;2023-04-03T14:56:46;65.22;;;3.33;;
4049;SDS011;2039;50.894;6.888;2023-04-03T14:59:13;65.45;;;3.45;;
4049;SDS011;2039;50.894;6.888;2023-04-03T15:01:39;64.57;;;3.42;;
4049;SDS011;2039;50.894;6.888;2023-04-03T15:04:10;65.73;;;3.43;;
4049;SDS011;2039;50.894;6.888;2023-04-03T15:06:43;68.60;;;3.40;;
4049;SDS011;2039;50.894;6.888;2023-04-03T15:09:15;66.80;;;3.50;;
4049;SDS011;2039;50.894;6.888;2023-04-03T15:11:45;66.03;;;3.80;;
4049;SDS011;2039;50.894;6.888;2023-04-03T15:14:11;66.03;;;3.50;;
4049;SDS011;2039;50.894;6.888;2023-04-03T15:16:37;66.27;;;3.27;;
4049;SDS011;2039;50.894;6.888;2023-04-03T15:19:03;65.17;;;3.03;;
4049;SDS011;2039;50.894;6.888;2023-04-03T15:21:28;65.37;;;3.57;;
4049;SDS011;2039;50.894;6.888;2023-04-03T15:23:54;66.03;;;3.63;;
4049;SDS011;2039;50.894;6.888;2023-04-03T15:26:20;65.67;;;3.37;;
4049;SDS011;2039;50.894;6.888;2023-04-03T15:28:46;67.63;;;3.43;;
4049;SDS011;2039;50.894;6.888;2023-04-03T15:31:12;66.97;;;3.97;;
4049;SDS011;2039;50.894;6.888;2023-04-03T15:33:38;66.37;;;3.73;;
4049;SDS011;2039;50.894;6.888;2023-04-03T15:36:04;64.47;;;3.08;;
4049;SDS011;2039;50.894;6.888;2023-04-03T15:38:30;65.18;;;3.47;;
4049;SDS011;2039;50.894;6.888;2023-04-03T15:40:56;66.13;;;3.70;;
4049;SDS011;2039;50.894;6.888;2023-04-03T15:43:22;65.67;;;3.10;;
4049;SDS011;2039;50.894;6.888;2023-04-03T15:45:48;65.88;;;3.72;;
4049;SDS011;2039;50.894;6.888;2023-04-03T15:48:15;68.15;;;3.72;;
4049;SDS011;2039;50.894;6.888;2023-04-03T15:50:41;66.53;;;3.75;;
4049;SDS011;2039;50.894;6.888;2023-04-03T15:53:08;74.75;;;3.70;;
4049;SDS011;2039;50.894;6.888;2023-04-03T15:55:37;68.47;;;3.40;;
4049;SDS011;2039;50.894;6.888;2023-04-03T15:58:03;66.13;;;3.25;;
4049;SDS011;2039;50.894;6.888;2023-04-03T16:00:29;65.20;;;3.17;;
4049;SDS011;2039;50.894;6.888;2023-04-03T16:02:58;65.03;;;3.63;;
4049;SDS011;2039;50.894;6.888;2023-04-03T16:05:29;65.50;;;3.70;;
4049;SDS011;2039;50.894;6.888;2023-04-03T16:07:55;65.75;;;3.35;;
4049;SDS011;2039;50.894;6.888;2023-04-03T16:10:23;66.25;;;3.60;;
4049;SDS011;2039;50.894;6.888;2023-04-03T16:12:48;66.80;;;3.27;;
4049;SDS011;2039;50.894;6.888;2023-04-03T16:15:14;64.70;;;3.20;;
4049;SDS011;2039;50.894;6.888;2023-04-03T16:17:40;65.57;;;3.23;;
4049;SDS011;2039;50.894;6.888;2023-04-03T16:20:08;66.80;;;3.05;;
4049;SDS011;2039;50.894;6.888;2023-04-03T16:22:35;65.85;;;3.72;;
4049;SDS011;2039;50.894;6.888;2023-04-03T16:25:02;65.68;;;3.15;;
4049;SDS011;2039;50.894;6.888;2023-04-03T16:27:29;65.28;;;2.90;;
4049;SDS011;2039;50.894;6.888;2023-04-03T16:29:56;66.40;;;3.20;;
4049;SDS011;2039;50.894;6.888;2023-04-03T16:32:22;66.90;;;3.70;;
4049;SDS011;2039;50.894;6.888;2023-04-03T16:34:51;68.13;;;4.07;;
4049;SDS011;2039;50.894;6.888;2023-04-03T16:37:17;68.30;;;3.70;;
4049;SDS011;2039;50.894;6.888;2023-04-03T16:39:43;64.37;;;3.23;;
4049;SDS011;2039;50.894;6.888;2023-04-03T16:42:09;66.38;;;3.70;;
4049;SDS011;2039;50.894;6.888;2023-04-03T16:44:35;65.00;;;3.33;;
4049;SDS011;2039;50.894;6.888;2023-04-03T16:47:01;66.13;;;4.28;;
4049;SDS011;2039;50.894;6.888;2023-04-03T16:49:27;71.78;;;3.30;;
4049;SDS011;2039;50.894;6.888;2023-04-03T16:51:57;66.13;;;3.47;;
4049;SDS011;2039;50.894;6.888;2023-04-03T16:54:23;69.68;;;3.35;;
4049;SDS011;2039;50.894;6.888;2023-04-03T16:56:49;66.90;;;3.13;;
4049;SDS011;2039;50.894;6.888;2023-04-03T16:59:15;69.23;;;3.70;;
4049;SDS011;2039;50.894;6.888;2023-04-03T17:01:41;69.93;;;3.50;;
4049;SDS011;2039;50.894;6.888;2023-04-03T17:04:07;68.23;;;3.77;;
4049;SDS011;2039;50.894;6.888;2023-04-03T17:06:33;64.97;;;3.30;;
4049;SDS011;2039;50.894;6.888;2023-04-03T17:08:59;66.13;;;3.75;;